createdAt,value
2019-02-09T00:01:04.989Z,37.40
2019-02-09T00:03:36.857Z,37.64
2019-02-09T00:06:09.003Z,37.53
2019-02-09T00:08:40.786Z,37.31
2019-02-09T00:11:12.372Z,36.99
2019-02-09T00:13:44.315Z,37.60
2019-02-09T00:16:16.058Z,37.32
2019-02-09T00:18:47.753Z,37.69
2019-02-09T00:21:18.462Z,37.93
2019-02-09T00:23:50.309Z,37.79
2019-02-09T00:26:21.867Z,37.64
2019-02-09T00:28:53.431Z,37.58
2019-02-09T00:31:25.310Z,37.57
2019-02-09T00:33:56.856Z,37.51
2019-02-09T00:36:28.761Z,37.85
2019-02-09T00:38:59.633Z,37.93
2019-02-09T00:41:31.370Z,37.77
2019-02-09T00:44:03.313Z,37.77
2019-02-09T00:46:35.306Z,37.48
2019-02-09T00:49:07.048Z,37.68
2019-02-09T00:51:38.800Z,37.98
2019-02-09T00:54:10.414Z,37.68
2019-02-09T00:56:42.299Z,37.74
2019-02-09T00:59:13.858Z,37.75
2019-02-09T01:01:45.448Z,37.92
2019-02-09T01:04:17.302Z,37.68
2019-02-09T01:06:48.969Z,37.99
2019-02-09T01:09:20.774Z,37.91
2019-02-09T01:11:52.580Z,37.72
2019-02-09T01:14:24.373Z,37.76
2019-02-09T01:16:56.254Z,37.76
2019-02-09T01:19:27.891Z,37.82
2019-02-09T01:21:59.757Z,37.54
2019-02-09T01:24:30.502Z,37.69
2019-02-09T01:27:02.268Z,37.51
2019-02-09T01:29:34.310Z,37.29
2019-02-09T01:32:06.310Z,37.28
2019-02-09T01:34:38.422Z,36.82
2019-02-09T01:37:10.319Z,37.36
2019-02-09T01:39:41.913Z,37.66
2019-02-09T01:44:59.816Z,37.39
2019-02-09T01:47:31.654Z,37.53
2019-02-09T01:50:03.365Z,37.52
2019-02-09T01:52:35.301Z,37.60
2019-02-09T01:55:07.806Z,37.40
2019-02-09T01:57:39.401Z,37.65
2019-02-09T02:00:19.752Z,37.73
2019-02-09T02:02:50.493Z,37.73
2019-02-09T02:05:23.793Z,37.70
2019-02-09T02:07:54.532Z,37.86
2019-02-09T02:10:36.751Z,37.60
2019-02-09T02:13:09.504Z,37.41
2019-02-09T02:15:42.320Z,37.79
2019-02-09T02:18:14.795Z,37.37
2019-02-09T02:20:46.826Z,37.80
2019-02-09T02:23:18.807Z,37.54
2019-02-09T02:25:50.818Z,37.90
2019-02-09T02:28:22.860Z,37.91
2019-02-09T02:30:54.810Z,36.99
2019-02-09T02:33:26.841Z,37.75
2019-02-09T02:35:58.792Z,37.64
2019-02-09T02:38:29.670Z,37.96
2019-02-09T02:41:01.798Z,37.77
2019-02-09T02:43:33.260Z,37.77
2019-02-09T02:46:05.361Z,37.09
2019-02-09T02:48:37.507Z,37.73
2019-02-09T02:51:09.765Z,37.88
2019-02-09T02:53:40.667Z,37.08
2019-02-09T02:56:12.840Z,37.48
2019-02-09T02:58:44.782Z,37.48
2019-02-09T03:01:17.318Z,37.65
2019-02-09T03:03:49.355Z,37.81
2019-02-09T03:06:21.524Z,37.96
2019-02-09T03:08:53.806Z,37.29
2019-02-09T03:11:25.863Z,37.59
2019-02-09T03:13:57.787Z,37.66
2019-02-09T03:16:28.689Z,37.56
2019-02-09T03:19:00.263Z,37.27
2019-02-09T03:21:32.315Z,37.29
2019-02-09T03:24:04.304Z,37.63
2019-02-09T03:26:36.339Z,37.73
2019-02-09T03:29:08.347Z,37.75
2019-02-09T03:31:40.530Z,37.75
2019-02-09T03:34:12.856Z,37.67
2019-02-09T03:36:44.798Z,37.67
2019-02-09T03:39:16.819Z,37.85
2019-02-09T03:41:48.881Z,37.81
2019-02-09T03:44:20.836Z,37.46
2019-02-09T03:46:52.765Z,37.89
2019-02-09T03:49:25.315Z,37.74
2019-02-09T03:51:57.803Z,37.89
2019-02-09T03:54:28.685Z,37.59
2019-02-09T03:57:00.839Z,37.68
2019-02-09T04:02:17.329Z,37.67
2019-02-09T04:04:49.371Z,37.74
2019-02-09T04:07:21.487Z,37.68
2019-02-09T04:09:53.711Z,37.71
2019-02-09T04:12:25.102Z,37.70
2019-02-09T04:14:57.330Z,37.82
2019-02-09T04:17:29.325Z,37.92
2019-02-09T04:20:01.350Z,37.98
2019-02-09T04:22:33.547Z,37.86
2019-02-09T04:25:05.877Z,37.81
2019-02-09T04:27:38.317Z,37.83
2019-02-09T04:30:26.821Z,37.86
2019-02-09T04:32:59.024Z,37.42
2019-02-09T04:35:30.886Z,37.58
2019-02-09T04:38:03.339Z,37.83
2019-02-09T04:40:36.091Z,37.79
2019-02-09T04:43:08.319Z,37.97
2019-02-09T04:45:40.324Z,37.60
2019-02-09T04:48:12.332Z,37.53
2019-02-09T04:50:44.517Z,37.38
2019-02-09T04:53:16.763Z,38.01
2019-02-09T04:55:48.840Z,37.97
2019-02-09T04:58:20.802Z,37.67
2019-02-09T05:00:51.705Z,37.85
2019-02-09T05:03:22.633Z,37.98
2019-02-09T05:05:54.798Z,38.13
2019-02-09T05:08:27.081Z,38.13
2019-02-09T05:10:59.531Z,37.98
2019-02-09T05:13:31.711Z,37.19
2019-02-09T05:16:03.821Z,37.04
2019-02-09T05:18:35.767Z,37.04
2019-02-09T05:21:07.822Z,37.54
2019-02-09T05:23:39.872Z,37.92
2019-02-09T05:26:11.836Z,38.08
2019-02-09T05:28:43.810Z,37.70
2019-02-09T05:31:22.976Z,37.60
2019-02-09T05:33:49.253Z,37.84
2019-02-09T05:36:20.644Z,37.68
2019-02-09T05:38:52.805Z,37.65
2019-02-09T05:41:24.827Z,37.65
2019-02-09T05:43:56.824Z,37.71
2019-02-09T05:46:28.817Z,37.57
2019-02-09T05:49:00.810Z,37.63
2019-02-09T05:51:33.016Z,37.44
2019-02-09T05:54:04.841Z,37.79
2019-02-09T05:56:36.867Z,37.65
2019-02-09T05:59:08.810Z,37.26
2019-02-09T06:01:40.847Z,37.46
2019-02-09T06:04:12.773Z,37.29
2019-02-09T06:06:43.673Z,34.87
2019-02-09T06:09:14.661Z,34.82
2019-02-09T06:11:47.315Z,33.41
2019-02-09T06:14:19.331Z,33.41
2019-02-09T06:16:51.800Z,33.06
2019-02-09T06:19:24.307Z,33.11
2019-02-09T06:21:56.771Z,32.43
2019-02-09T06:24:27.692Z,32.24
2019-02-09T06:27:01.333Z,31.80
2019-02-09T06:29:33.285Z,32.29
2019-02-09T06:32:05.323Z,32.19
2019-02-09T06:34:37.315Z,32.15
2019-02-09T06:37:09.320Z,32.10
2019-02-09T06:39:43.794Z,31.23
2019-02-09T06:42:16.309Z,32.36
2019-02-09T06:44:48.357Z,32.44
2019-02-09T06:47:20.443Z,31.43
2019-02-09T06:49:52.343Z,32.58
2019-02-09T06:52:24.475Z,32.64
2019-02-09T06:54:57.055Z,32.75
2019-02-09T06:57:29.029Z,32.82
2019-02-09T07:00:01.310Z,32.17
2019-02-09T07:02:33.393Z,33.06
2019-02-09T07:05:05.539Z,32.88
2019-02-09T07:07:37.859Z,33.02
2019-02-09T07:10:10.426Z,33.18
2019-02-09T07:12:42.796Z,33.46
2019-02-09T07:15:19.003Z,33.52
2019-02-09T07:17:51.472Z,33.72
2019-02-09T07:20:23.305Z,32.40
2019-02-09T07:22:55.270Z,33.22
2019-02-09T07:25:27.916Z,33.08
2019-02-09T07:28:00.306Z,33.61
2019-02-09T07:30:32.332Z,33.69
2019-02-09T07:34:34.826Z,33.63
2019-02-09T07:37:06.878Z,34.07
2019-02-09T07:39:39.313Z,33.17
2019-02-09T07:42:11.315Z,33.91
2019-02-09T07:44:43.315Z,34.05
2019-02-09T07:47:15.278Z,33.65
2019-02-09T07:49:47.266Z,33.35
2019-02-09T07:52:20.311Z,33.10
2019-02-09T07:54:52.307Z,32.88
2019-02-09T07:57:24.313Z,32.40
2019-02-09T07:59:56.863Z,32.06
2019-02-09T08:02:28.794Z,32.21
2019-02-09T08:05:01.328Z,32.10
2019-02-09T08:07:33.356Z,32.17
2019-02-09T08:10:06.314Z,32.32
2019-02-09T08:12:38.350Z,31.63
2019-02-09T08:15:21.908Z,31.86
2019-02-09T08:17:53.908Z,31.99
2019-02-09T08:20:28.065Z,32.53
2019-02-09T08:23:01.969Z,32.99
2019-02-09T08:25:36.294Z,32.66
2019-02-09T08:28:10.314Z,33.26
2019-02-09T08:30:47.000Z,33.20
2019-02-09T08:33:18.854Z,32.98
2019-02-09T08:35:50.818Z,33.44
2019-02-09T08:38:24.007Z,33.69
2019-02-09T08:40:55.800Z,33.24
2019-02-09T08:43:28.071Z,33.55
2019-02-09T08:46:00.059Z,33.08
2019-02-09T08:48:32.067Z,32.26
2019-02-09T08:51:13.483Z,32.20
2019-02-09T08:53:47.062Z,32.25
2019-02-09T08:56:19.306Z,33.00
2019-02-09T08:58:51.306Z,34.64
2019-02-09T09:01:23.305Z,34.76
2019-02-09T09:03:55.775Z,35.03
2019-02-09T09:06:26.670Z,34.70
2019-02-09T09:08:58.109Z,35.23
2019-02-09T09:11:30.307Z,34.95
2019-02-09T09:14:04.804Z,34.91
2019-02-09T09:16:36.842Z,34.77
2019-02-09T09:19:08.837Z,35.41
2019-02-09T09:21:40.794Z,35.34
2019-02-09T09:24:13.321Z,35.31
2019-02-09T09:26:45.766Z,35.60
2019-02-09T09:29:18.719Z,35.72
2019-02-09T09:31:49.757Z,35.77
2019-02-09T09:34:20.754Z,35.64
2019-02-09T09:36:51.654Z,35.58
2019-02-09T09:39:22.629Z,35.47
2019-02-09T09:41:54.871Z,35.47
2019-02-09T09:44:26.814Z,35.47
2019-02-09T09:46:58.804Z,35.83
2019-02-09T09:49:32.303Z,35.56
2019-02-09T09:52:04.694Z,35.87
2019-02-09T09:54:35.683Z,35.66
2019-02-09T09:57:06.674Z,35.66
2019-02-09T09:59:37.611Z,35.95
2019-02-09T10:02:09.250Z,35.98
2019-02-09T10:04:40.638Z,35.69
2019-02-09T10:07:12.786Z,35.86
2019-02-09T10:09:43.629Z,35.86
2019-02-09T10:12:15.850Z,36.08
2019-02-09T10:14:47.794Z,36.08
2019-02-09T10:17:19.823Z,36.64
2019-02-09T10:19:51.822Z,36.34
2019-02-09T10:22:23.826Z,36.11
2019-02-09T10:24:56.299Z,36.02
2019-02-09T10:27:28.848Z,36.21
2019-02-09T10:30:00.636Z,36.21
2019-02-09T10:32:32.881Z,36.33
2019-02-09T10:35:04.839Z,36.33
2019-02-09T10:37:36.741Z,36.04
2019-02-09T10:40:13.713Z,36.04
2019-02-09T10:42:46.022Z,35.67
2019-02-09T10:45:22.304Z,35.00
2019-02-09T10:47:54.301Z,35.36
2019-02-09T10:50:36.310Z,35.58
2019-02-09T10:53:08.515Z,35.51
2019-02-09T10:55:40.846Z,35.28
2019-02-09T10:58:12.862Z,35.15
2019-02-09T11:00:59.877Z,35.13
2019-02-09T11:03:31.847Z,35.68
2019-02-09T11:06:03.804Z,35.88
2019-02-09T11:08:35.810Z,35.95
2019-02-09T11:11:07.804Z,36.06
2019-02-09T11:13:39.970Z,35.89
2019-02-09T11:16:12.308Z,36.00
2019-02-09T11:18:44.303Z,36.03
2019-02-09T11:21:16.784Z,35.86
2019-02-09T11:23:48.836Z,35.83
2019-02-09T11:26:20.808Z,35.76
2019-02-09T11:28:52.758Z,35.80
2019-02-09T11:31:24.806Z,35.84
2019-02-09T11:33:56.788Z,35.82
2019-02-09T11:36:28.814Z,35.73
2019-02-09T11:39:00.830Z,35.57
2019-02-09T11:41:32.823Z,35.52
2019-02-09T11:44:04.910Z,35.52
2019-02-09T11:46:37.399Z,35.52
2019-02-09T11:49:09.508Z,35.51
2019-02-09T11:51:41.756Z,35.57
2019-02-09T11:54:13.791Z,35.60
2019-02-09T11:56:45.795Z,35.71
2019-02-09T11:59:17.799Z,35.64
2019-02-09T12:01:49.783Z,35.66
2019-02-09T12:04:21.103Z,35.60
2019-02-09T12:06:53.313Z,35.61
2019-02-09T12:09:25.783Z,35.58
2019-02-09T12:11:57.806Z,35.62
2019-02-09T12:14:29.775Z,35.59
2019-02-09T12:17:00.697Z,35.63
2019-02-09T12:20:46.630Z,35.65
2019-02-09T12:23:18.867Z,35.57
2019-02-09T12:29:22.808Z,35.42
2019-02-09T12:31:55.027Z,35.40
2019-02-09T12:34:27.783Z,35.44
2019-02-09T12:37:00.683Z,35.45
2019-02-09T12:39:33.339Z,35.48
2019-02-09T12:42:06.672Z,35.44
2019-02-09T12:44:38.541Z,35.51
2019-02-09T12:47:11.028Z,35.60
2019-02-09T12:49:44.001Z,35.60
2019-02-09T12:52:16.875Z,35.57
2019-02-09T12:54:50.000Z,35.59
2019-02-09T12:57:25.026Z,35.53
2019-02-09T12:59:58.012Z,35.54
2019-02-09T13:02:31.063Z,35.68
2019-02-09T13:05:04.453Z,34.82
2019-02-09T13:07:37.401Z,34.04
2019-02-09T13:10:10.770Z,33.25
2019-02-09T13:12:43.321Z,32.88
2019-02-09T13:15:23.788Z,32.35
2019-02-09T13:17:56.911Z,32.01
2019-02-09T13:20:30.595Z,32.10
2019-02-09T13:23:03.294Z,31.72
2019-02-09T13:25:35.920Z,31.72
2019-02-09T13:28:08.904Z,31.51
2019-02-09T13:30:41.934Z,31.10
2019-02-09T13:33:14.815Z,31.08
2019-02-09T13:35:47.324Z,31.00
2019-02-09T13:38:21.021Z,31.08
2019-02-09T13:40:53.708Z,31.41
2019-02-09T13:43:25.140Z,31.46
2019-02-09T13:45:58.449Z,31.51
2019-02-09T13:48:31.080Z,31.43
2019-02-09T13:51:04.024Z,31.34
2019-02-09T13:53:36.861Z,31.25
2019-02-09T13:56:09.342Z,30.90
2019-02-09T13:58:42.103Z,31.06
2019-02-09T14:01:15.348Z,31.22
2019-02-09T14:03:48.018Z,31.43
2019-02-09T14:06:20.924Z,31.55
2019-02-09T14:08:53.981Z,31.28
2019-02-09T14:11:26.916Z,31.58
2019-02-09T14:13:59.297Z,32.04
2019-02-09T14:16:38.655Z,32.07
2019-02-09T14:19:06.424Z,32.31
2019-02-09T14:21:39.348Z,32.55
2019-02-09T14:24:11.781Z,32.78
2019-02-09T14:26:43.835Z,32.41
2019-02-09T14:29:15.826Z,33.09
2019-02-09T14:31:48.291Z,33.20
2019-02-09T14:34:20.773Z,33.39
2019-02-09T14:36:52.883Z,33.17
2019-02-09T14:39:25.324Z,33.41
2019-02-09T14:41:57.525Z,32.89
2019-02-09T14:44:29.847Z,33.27
2019-02-09T14:47:02.334Z,32.93
2019-02-09T14:49:34.864Z,33.49
2019-02-09T14:52:07.357Z,33.57
2019-02-09T14:54:39.914Z,33.68
2019-02-09T14:57:11.883Z,32.89
2019-02-09T14:59:44.334Z,32.17
2019-02-09T15:02:16.847Z,33.04
2019-02-09T15:04:48.841Z,33.37
2019-02-09T15:07:20.861Z,32.95
2019-02-09T15:09:53.333Z,33.78
2019-02-09T15:12:26.398Z,33.63
2019-02-09T15:14:58.611Z,32.99
2019-02-09T15:17:30.880Z,32.66
2019-02-09T15:20:03.329Z,32.66
2019-02-09T15:22:35.413Z,32.73
2019-02-09T15:25:08.324Z,32.52
2019-02-09T15:27:40.535Z,32.54
2019-02-09T15:30:17.523Z,32.60
2019-02-09T15:32:49.830Z,32.48
2019-02-09T15:35:22.827Z,32.62
2019-02-09T15:37:54.845Z,32.34
2019-02-09T15:40:26.891Z,32.57
2019-02-09T15:42:58.849Z,32.71
2019-02-09T15:45:30.827Z,32.78
2019-02-09T15:48:02.868Z,32.81
2019-02-09T15:50:34.865Z,32.98
2019-02-09T15:53:06.900Z,33.10
2019-02-09T15:55:39.002Z,33.20
2019-02-09T15:58:11.610Z,33.17
2019-02-09T16:00:44.330Z,33.29
2019-02-09T16:03:16.924Z,33.29
2019-02-09T16:05:49.009Z,33.33
2019-02-09T16:08:20.923Z,33.32
2019-02-09T16:10:52.780Z,33.64
2019-02-09T16:13:24.831Z,33.66
2019-02-09T16:15:56.781Z,33.72
2019-02-09T16:18:28.852Z,33.83
2019-02-09T16:21:01.345Z,33.61
2019-02-09T16:23:33.905Z,34.25
2019-02-09T16:26:05.929Z,34.46
2019-02-09T16:28:38.332Z,34.77
2019-02-09T16:31:10.877Z,34.36
2019-02-09T16:33:43.440Z,34.56
2019-02-09T16:36:15.858Z,34.50
2019-02-09T16:38:47.932Z,34.55
2019-02-09T16:41:32.863Z,34.61
2019-02-09T16:44:05.555Z,35.20
2019-02-09T16:46:37.893Z,34.01
2019-02-09T16:49:10.332Z,33.57
2019-02-09T16:51:42.858Z,33.45
2019-02-09T16:54:14.856Z,32.74
2019-02-09T16:56:46.864Z,33.03
2019-02-09T16:59:18.836Z,31.79
2019-02-09T17:01:50.847Z,32.50
2019-02-09T17:04:22.834Z,32.69
2019-02-09T17:06:54.847Z,32.70
2019-02-09T17:09:28.337Z,32.81
2019-02-09T17:12:00.352Z,32.64
2019-02-09T17:14:32.803Z,32.83
2019-02-09T17:17:04.835Z,33.26
2019-02-09T17:19:36.892Z,33.21
2019-02-09T17:22:08.851Z,32.86
2019-02-09T17:24:41.336Z,33.43
2019-02-09T17:27:13.855Z,33.32
2019-02-09T17:29:46.565Z,33.40
2019-02-09T17:32:18.865Z,33.17
2019-02-09T17:34:50.823Z,33.17
2019-02-09T17:37:22.959Z,32.96
2019-02-09T17:39:55.702Z,33.55
2019-02-09T17:42:26.714Z,33.29
2019-02-09T17:44:59.071Z,32.87
2019-02-09T17:47:30.824Z,33.53
2019-02-09T17:50:02.875Z,33.60
2019-02-09T17:52:35.161Z,33.70
2019-02-09T17:55:09.540Z,33.99
2019-02-09T17:57:41.813Z,34.36
2019-02-09T18:00:23.561Z,34.36
2019-02-09T18:02:55.798Z,33.59
2019-02-09T18:05:27.788Z,33.75
2019-02-09T18:07:59.872Z,34.21
2019-02-09T18:10:31.870Z,34.88
2019-02-09T18:13:04.084Z,35.28
2019-02-09T18:15:36.868Z,35.10
2019-02-09T18:18:10.327Z,35.35
2019-02-09T18:20:42.889Z,35.48
2019-02-09T18:23:15.324Z,34.97
2019-02-09T18:25:47.871Z,35.79
2019-02-09T18:28:19.859Z,35.62
2019-02-09T18:30:52.876Z,35.81
2019-02-09T18:33:25.333Z,36.07
2019-02-09T18:35:58.011Z,35.98
2019-02-09T18:39:56.865Z,36.23
2019-02-09T18:42:28.890Z,36.23
2019-02-09T18:45:03.627Z,35.40
2019-02-09T18:47:34.662Z,34.23
2019-02-09T18:50:07.832Z,33.16
2019-02-09T18:52:39.922Z,33.16
2019-02-09T18:55:16.820Z,32.94
2019-02-09T18:57:49.384Z,33.03
2019-02-09T19:00:25.885Z,32.72
2019-02-09T19:02:58.008Z,31.34
2019-02-09T19:05:30.324Z,32.99
2019-02-09T19:08:02.833Z,32.82
2019-02-09T19:10:34.962Z,32.58
2019-02-09T19:13:07.339Z,31.96
2019-02-09T19:15:39.669Z,32.53
2019-02-09T19:18:11.833Z,32.39
2019-02-09T19:20:52.858Z,32.39
2019-02-09T19:23:25.358Z,32.93
2019-02-09T19:25:57.656Z,32.39
2019-02-09T19:28:29.818Z,33.11
2019-02-09T19:31:01.999Z,33.34
2019-02-09T19:33:34.328Z,33.63
2019-02-09T19:36:06.845Z,33.76
2019-02-09T19:38:39.311Z,33.57
2019-02-09T19:41:11.423Z,33.64
2019-02-09T19:43:44.328Z,33.42
2019-02-09T19:46:16.511Z,34.15
2019-02-09T19:48:48.793Z,34.04
2019-02-09T19:51:20.910Z,33.31
2019-02-09T19:53:53.323Z,33.37
2019-02-09T19:56:25.652Z,33.36
2019-02-09T19:58:57.828Z,33.62
2019-02-09T20:01:29.868Z,33.62
2019-02-09T20:04:02.097Z,33.94
2019-02-09T20:06:34.844Z,34.13
2019-02-09T20:09:10.298Z,33.11
2019-02-09T20:11:42.848Z,33.28
2019-02-09T20:14:14.873Z,34.04
2019-02-09T20:16:46.894Z,35.51
2019-02-09T20:19:18.871Z,34.76
2019-02-09T20:21:51.496Z,35.67
2019-02-09T20:24:23.793Z,35.68
2019-02-09T20:26:55.873Z,35.86
2019-02-09T20:29:28.392Z,35.68
2019-02-09T20:32:00.877Z,35.90
2019-02-09T20:34:32.814Z,35.94
2019-02-09T20:37:04.831Z,35.75
2019-02-09T20:39:36.844Z,35.98
2019-02-09T20:42:08.836Z,36.13
2019-02-09T20:44:40.857Z,35.66
2019-02-09T20:47:13.302Z,36.29
2019-02-09T20:49:46.331Z,36.32
2019-02-09T20:52:18.843Z,36.15
2019-02-09T20:54:50.865Z,36.65
2019-02-09T20:57:22.857Z,36.03
2019-02-09T20:59:54.879Z,36.10
2019-02-09T21:02:27.027Z,36.07
2019-02-09T21:05:00.706Z,36.75
2019-02-09T21:07:33.002Z,36.57
2019-02-09T21:10:04.806Z,36.64
2019-02-09T21:12:36.858Z,36.82
2019-02-09T21:15:10.358Z,36.65
2019-02-09T21:17:42.728Z,36.69
2019-02-09T21:20:15.311Z,36.94
2019-02-09T21:22:47.725Z,36.66
2019-02-09T21:25:40.671Z,36.91
2019-02-09T21:28:12.894Z,36.65
2019-02-09T21:30:44.843Z,36.65
2019-02-09T21:33:16.872Z,37.01
2019-02-09T21:35:48.869Z,37.13
2019-02-09T21:38:20.854Z,37.24
2019-02-09T21:40:52.841Z,37.16
2019-02-09T21:43:24.883Z,36.98
2019-02-09T21:45:56.803Z,36.95
2019-02-09T21:48:28.844Z,37.00
2019-02-09T21:51:00.977Z,37.34
2019-02-09T21:53:33.312Z,37.05
2019-02-09T21:56:05.828Z,37.25
2019-02-09T21:58:37.826Z,37.37
2019-02-09T22:01:09.847Z,37.15
2019-02-09T22:03:42.085Z,37.53
2019-02-09T22:06:14.328Z,37.58
2019-02-09T22:08:46.827Z,37.62
2019-02-09T22:11:18.870Z,37.59
2019-02-09T22:13:50.922Z,37.34
2019-02-09T22:16:22.881Z,37.48
2019-02-09T22:18:54.958Z,37.87
2019-02-09T22:21:27.893Z,37.54
2019-02-09T22:24:00.377Z,37.85
2019-02-09T22:26:32.802Z,37.77
2019-02-09T22:29:04.881Z,37.68
2019-02-09T22:31:36.982Z,37.68
2019-02-09T22:34:09.940Z,37.62
2019-02-09T22:36:41.892Z,37.77
2019-02-09T22:39:13.916Z,37.88
2019-02-09T22:41:49.133Z,37.67
2019-02-09T22:44:21.823Z,37.90
2019-02-09T22:46:53.857Z,37.70
2019-02-09T22:49:25.828Z,37.94
2019-02-09T22:51:57.868Z,37.94
2019-02-09T22:54:30.326Z,37.85
2019-02-09T22:57:02.851Z,37.88
2019-02-09T22:59:34.838Z,37.68
2019-02-09T23:02:07.335Z,37.81
2019-02-09T23:05:39.454Z,37.61
2019-02-09T23:08:11.799Z,37.92
2019-02-09T23:10:43.887Z,38.12
2019-02-09T23:13:16.359Z,37.87
2019-02-09T23:15:49.292Z,38.22
2019-02-09T23:18:21.855Z,38.03
2019-02-09T23:20:53.878Z,37.95
2019-02-09T23:23:25.848Z,38.35
2019-02-09T23:25:57.896Z,38.31
2019-02-09T23:28:30.322Z,37.93
2019-02-09T23:31:03.018Z,38.19
2019-02-09T23:33:35.865Z,38.44
2019-02-09T23:36:15.159Z,38.44
2019-02-09T23:38:43.331Z,38.23
2019-02-09T23:41:15.528Z,38.23
2019-02-09T23:43:47.944Z,38.49
2019-02-09T23:46:19.877Z,38.51
2019-02-09T23:48:52.021Z,38.32
2019-02-09T23:52:07.328Z,38.50
2019-02-09T23:54:39.848Z,38.49
2019-02-09T23:57:11.848Z,38.35
2019-02-09T23:59:43.828Z,38.29
